sensor_id;sensor_type;location;lat;lon;timestamp;P1;durP1;ratioP1;P2;durP2;ratioP2
37647;SDS011;23490;53.656;10.076;2023-08-30T00:00:13;2.53;;;1.13;;
37647;SDS011;23490;53.656;10.076;2023-08-30T00:02:39;2.38;;;1.17;;
37647;SDS011;23490;53.656;10.076;2023-08-30T00:05:04;2.40;;;1.40;;
37647;SDS011;23490;53.656;10.076;2023-08-30T00:07:30;2.97;;;1.25;;
37647;SDS011;23490;53.656;10.076;2023-08-30T00:09:56;1.95;;;1.20;;
37647;SDS011;23490;53.656;10.076;2023-08-30T00:12:23;2.25;;;1.30;;
37647;SDS011;23490;53.656;10.076;2023-08-30T00:14:48;3.05;;;1.33;;
37647;SDS011;23490;53.656;10.076;2023-08-30T00:17:14;2.55;;;1.45;;
37647;SDS011;23490;53.656;10.076;2023-08-30T00:19:39;1.95;;;1.13;;
37647;SDS011;23490;53.656;10.076;2023-08-30T00:22:05;3.47;;;1.45;;
37647;SDS011;23490;53.656;10.076;2023-08-30T00:24:32;1.90;;;1.17;;
37647;SDS011;23490;53.656;10.076;2023-08-30T00:26:58;2.75;;;1.40;;
37647;SDS011;23490;53.656;10.076;2023-08-30T00:29:24;4.47;;;1.15;;
37647;SDS011;23490;53.656;10.076;2023-08-30T00:31:49;3.60;;;1.35;;
37647;SDS011;23490;53.656;10.076;2023-08-30T00:34:14;2.75;;;1.60;;
37647;SDS011;23490;53.656;10.076;2023-08-30T00:36:40;1.85;;;1.10;;
37647;SDS011;23490;53.656;10.076;2023-08-30T00:39:05;1.92;;;1.27;;
37647;SDS011;23490;53.656;10.076;2023-08-30T00:41:31;2.30;;;1.40;;
37647;SDS011;23490;53.656;10.076;2023-08-30T00:43:57;2.20;;;1.17;;
37647;SDS011;23490;53.656;10.076;2023-08-30T00:46:22;2.50;;;1.17;;
37647;SDS011;23490;53.656;10.076;2023-08-30T00:48:47;2.45;;;1.10;;
37647;SDS011;23490;53.656;10.076;2023-08-30T00:51:13;2.13;;;1.10;;
37647;SDS011;23490;53.656;10.076;2023-08-30T00:53:38;2.22;;;1.30;;
37647;SDS011;23490;53.656;10.076;2023-08-30T00:56:04;2.13;;;1.48;;
37647;SDS011;23490;53.656;10.076;2023-08-30T00:58:29;2.00;;;1.20;;
37647;SDS011;23490;53.656;10.076;2023-08-30T01:00:55;1.77;;;1.23;;
37647;SDS011;23490;53.656;10.076;2023-08-30T01:03:20;2.35;;;1.13;;
37647;SDS011;23490;53.656;10.076;2023-08-30T01:05:47;2.28;;;1.25;;
37647;SDS011;23490;53.656;10.076;2023-08-30T01:08:12;3.05;;;1.77;;
37647;SDS011;23490;53.656;10.076;2023-08-30T01:13:29;2.45;;;1.35;;
37647;SDS011;23490;53.656;10.076;2023-08-30T01:15:56;4.53;;;1.48;;
37647;SDS011;23490;53.656;10.076;2023-08-30T01:18:28;3.20;;;1.83;;
37647;SDS011;23490;53.656;10.076;2023-08-30T01:20:57;2.25;;;1.27;;
37647;SDS011;23490;53.656;10.076;2023-08-30T01:23:33;3.75;;;1.60;;
37647;SDS011;23490;53.656;10.076;2023-08-30T01:26:10;3.45;;;2.20;;
37647;SDS011;23490;53.656;10.076;2023-08-30T01:28:39;2.78;;;1.48;;
37647;SDS011;23490;53.656;10.076;2023-08-30T01:31:06;2.95;;;1.50;;
37647;SDS011;23490;53.656;10.076;2023-08-30T01:33:34;2.75;;;1.58;;
37647;SDS011;23490;53.656;10.076;2023-08-30T01:36:01;3.05;;;1.52;;
37647;SDS011;23490;53.656;10.076;2023-08-30T01:38:29;4.45;;;1.85;;
37647;SDS011;23490;53.656;10.076;2023-08-30T01:40:56;4.55;;;1.67;;
37647;SDS011;23490;53.656;10.076;2023-08-30T01:43:22;2.72;;;1.35;;
37647;SDS011;23490;53.656;10.076;2023-08-30T01:45:50;2.35;;;1.30;;
37647;SDS011;23490;53.656;10.076;2023-08-30T01:48:15;2.60;;;1.50;;
37647;SDS011;23490;53.656;10.076;2023-08-30T01:50:43;3.75;;;1.40;;
37647;SDS011;23490;53.656;10.076;2023-08-30T01:53:14;1.90;;;1.15;;
37647;SDS011;23490;53.656;10.076;2023-08-30T01:55:42;5.00;;;1.65;;
37647;SDS011;23490;53.656;10.076;2023-08-30T01:58:08;2.60;;;1.48;;
37647;SDS011;23490;53.656;10.076;2023-08-30T02:00:37;3.03;;;1.60;;
37647;SDS011;23490;53.656;10.076;2023-08-30T02:03:09;2.08;;;1.25;;
37647;SDS011;23490;53.656;10.076;2023-08-30T02:05:36;2.30;;;1.40;;
37647;SDS011;23490;53.656;10.076;2023-08-30T02:08:13;3.58;;;1.50;;
37647;SDS011;23490;53.656;10.076;2023-08-30T02:10:45;2.50;;;1.67;;
37647;SDS011;23490;53.656;10.076;2023-08-30T02:13:16;2.42;;;1.55;;
37647;SDS011;23490;53.656;10.076;2023-08-30T02:15:46;2.22;;;1.50;;
37647;SDS011;23490;53.656;10.076;2023-08-30T02:18:13;1.95;;;1.33;;
37647;SDS011;23490;53.656;10.076;2023-08-30T02:20:39;3.28;;;1.42;;
37647;SDS011;23490;53.656;10.076;2023-08-30T02:23:05;3.45;;;1.48;;
37647;SDS011;23490;53.656;10.076;2023-08-30T02:25:30;3.25;;;1.23;;
37647;SDS011;23490;53.656;10.076;2023-08-30T02:27:55;2.92;;;1.88;;
37647;SDS011;23490;53.656;10.076;2023-08-30T02:30:20;2.60;;;1.35;;
37647;SDS011;23490;53.656;10.076;2023-08-30T02:32:46;2.13;;;1.30;;
37647;SDS011;23490;53.656;10.076;2023-08-30T02:35:11;3.72;;;1.55;;
37647;SDS011;23490;53.656;10.076;2023-08-30T02:37:37;2.42;;;1.60;;
37647;SDS011;23490;53.656;10.076;2023-08-30T02:40:02;2.88;;;1.50;;
37647;SDS011;23490;53.656;10.076;2023-08-30T02:42:27;1.58;;;1.10;;
37647;SDS011;23490;53.656;10.076;2023-08-30T02:44:53;2.42;;;1.50;;
37647;SDS011;23490;53.656;10.076;2023-08-30T02:47:18;3.75;;;1.73;;
37647;SDS011;23490;53.656;10.076;2023-08-30T02:49:44;2.53;;;1.75;;
37647;SDS011;23490;53.656;10.076;2023-08-30T02:52:09;2.13;;;1.35;;
37647;SDS011;23490;53.656;10.076;2023-08-30T02:54:35;2.60;;;1.40;;
37647;SDS011;23490;53.656;10.076;2023-08-30T02:57:00;2.55;;;1.70;;
37647;SDS011;23490;53.656;10.076;2023-08-30T02:59:25;2.42;;;1.48;;
37647;SDS011;23490;53.656;10.076;2023-08-30T03:01:51;2.78;;;1.73;;
37647;SDS011;23490;53.656;10.076;2023-08-30T03:04:16;3.38;;;1.38;;
37647;SDS011;23490;53.656;10.076;2023-08-30T03:06:41;3.28;;;1.30;;
37647;SDS011;23490;53.656;10.076;2023-08-30T03:09:07;2.30;;;1.27;;
37647;SDS011;23490;53.656;10.076;2023-08-30T03:11:35;2.55;;;1.48;;
37647;SDS011;23490;53.656;10.076;2023-08-30T03:14:00;3.13;;;1.58;;
37647;SDS011;23490;53.656;10.076;2023-08-30T03:16:26;2.72;;;1.50;;
37647;SDS011;23490;53.656;10.076;2023-08-30T03:18:51;3.65;;;1.48;;
37647;SDS011;23490;53.656;10.076;2023-08-30T03:21:17;2.17;;;1.23;;
37647;SDS011;23490;53.656;10.076;2023-08-30T03:23:42;2.55;;;1.77;;
37647;SDS011;23490;53.656;10.076;2023-08-30T03:28:34;2.67;;;1.50;;
37647;SDS011;23490;53.656;10.076;2023-08-30T03:31:00;3.13;;;1.65;;
37647;SDS011;23490;53.656;10.076;2023-08-30T03:33:25;3.08;;;1.50;;
37647;SDS011;23490;53.656;10.076;2023-08-30T03:35:50;3.20;;;1.70;;
37647;SDS011;23490;53.656;10.076;2023-08-30T03:38:16;4.35;;;1.70;;
37647;SDS011;23490;53.656;10.076;2023-08-30T03:40:41;2.25;;;1.40;;
37647;SDS011;23490;53.656;10.076;2023-08-30T03:43:06;3.20;;;1.83;;
37647;SDS011;23490;53.656;10.076;2023-08-30T03:45:35;3.50;;;2.00;;
37647;SDS011;23490;53.656;10.076;2023-08-30T03:48:02;2.88;;;1.58;;
37647;SDS011;23490;53.656;10.076;2023-08-30T03:50:28;3.85;;;2.03;;
37647;SDS011;23490;53.656;10.076;2023-08-30T03:52:53;3.15;;;1.75;;
37647;SDS011;23490;53.656;10.076;2023-08-30T03:55:19;3.03;;;1.80;;
37647;SDS011;23490;53.656;10.076;2023-08-30T03:57:44;4.43;;;1.98;;
37647;SDS011;23490;53.656;10.076;2023-08-30T04:00:09;4.10;;;2.08;;
37647;SDS011;23490;53.656;10.076;2023-08-30T04:02:36;4.75;;;2.05;;
37647;SDS011;23490;53.656;10.076;2023-08-30T04:05:01;3.65;;;1.80;;
37647;SDS011;23490;53.656;10.076;2023-08-30T04:07:26;3.38;;;1.63;;
37647;SDS011;23490;53.656;10.076;2023-08-30T04:09:52;3.33;;;1.90;;
37647;SDS011;23490;53.656;10.076;2023-08-30T04:12:17;3.42;;;1.90;;
37647;SDS011;23490;53.656;10.076;2023-08-30T04:14:42;5.05;;;2.00;;
37647;SDS011;23490;53.656;10.076;2023-08-30T04:17:08;4.03;;;1.88;;
37647;SDS011;23490;53.656;10.076;2023-08-30T04:19:33;3.25;;;1.85;;
37647;SDS011;23490;53.656;10.076;2023-08-30T04:21:58;3.30;;;2.00;;
37647;SDS011;23490;53.656;10.076;2023-08-30T04:24:24;3.53;;;1.70;;
37647;SDS011;23490;53.656;10.076;2023-08-30T04:26:49;3.30;;;1.90;;
37647;SDS011;23490;53.656;10.076;2023-08-30T04:29:16;3.72;;;2.22;;
37647;SDS011;23490;53.656;10.076;2023-08-30T04:31:45;5.80;;;2.83;;
37647;SDS011;23490;53.656;10.076;2023-08-30T04:34:10;4.35;;;2.40;;
37647;SDS011;23490;53.656;10.076;2023-08-30T04:36:36;4.07;;;2.25;;
37647;SDS011;23490;53.656;10.076;2023-08-30T04:39:01;5.22;;;2.40;;
37647;SDS011;23490;53.656;10.076;2023-08-30T04:41:27;5.05;;;2.53;;
37647;SDS011;23490;53.656;10.076;2023-08-30T04:43:52;4.95;;;2.70;;
37647;SDS011;23490;53.656;10.076;2023-08-30T04:46:17;4.90;;;2.65;;
37647;SDS011;23490;53.656;10.076;2023-08-30T04:48:43;4.85;;;2.78;;
37647;SDS011;23490;53.656;10.076;2023-08-30T04:51:08;7.07;;;3.08;;
37647;SDS011;23490;53.656;10.076;2023-08-30T04:53:33;5.10;;;2.95;;
37647;SDS011;23490;53.656;10.076;2023-08-30T04:55:59;5.65;;;3.08;;
37647;SDS011;23490;53.656;10.076;2023-08-30T04:58:24;5.43;;;2.67;;
37647;SDS011;23490;53.656;10.076;2023-08-30T05:00:49;6.25;;;2.95;;
37647;SDS011;23490;53.656;10.076;2023-08-30T05:03:15;5.90;;;3.28;;
37647;SDS011;23490;53.656;10.076;2023-08-30T05:05:44;6.25;;;3.38;;
37647;SDS011;23490;53.656;10.076;2023-08-30T05:08:10;6.32;;;3.95;;
37647;SDS011;23490;53.656;10.076;2023-08-30T05:10:36;5.65;;;3.15;;
37647;SDS011;23490;53.656;10.076;2023-08-30T05:13:02;6.65;;;4.25;;
37647;SDS011;23490;53.656;10.076;2023-08-30T05:15:28;7.28;;;3.40;;
37647;SDS011;23490;53.656;10.076;2023-08-30T05:17:54;7.95;;;3.40;;
37647;SDS011;23490;53.656;10.076;2023-08-30T05:20:19;7.35;;;3.95;;
37647;SDS011;23490;53.656;10.076;2023-08-30T05:22:47;6.18;;;3.70;;
37647;SDS011;23490;53.656;10.076;2023-08-30T05:25:12;7.28;;;3.47;;
37647;SDS011;23490;53.656;10.076;2023-08-30T05:27:38;7.78;;;3.97;;
37647;SDS011;23490;53.656;10.076;2023-08-30T05:30:03;5.78;;;3.58;;
37647;SDS011;23490;53.656;10.076;2023-08-30T05:32:29;5.40;;;3.28;;
37647;SDS011;23490;53.656;10.076;2023-08-30T05:34:54;6.97;;;3.92;;
37647;SDS011;23490;53.656;10.076;2023-08-30T05:37:20;7.43;;;4.25;;
37647;SDS011;23490;53.656;10.076;2023-08-30T05:39:45;7.53;;;4.40;;
37647;SDS011;23490;53.656;10.076;2023-08-30T05:42:10;7.32;;;4.28;;
37647;SDS011;23490;53.656;10.076;2023-08-30T05:44:36;7.32;;;4.45;;
37647;SDS011;23490;53.656;10.076;2023-08-30T05:47:01;7.13;;;3.90;;
37647;SDS011;23490;53.656;10.076;2023-08-30T05:49:26;7.30;;;4.40;;
37647;SDS011;23490;53.656;10.076;2023-08-30T05:51:52;6.30;;;4.15;;
37647;SDS011;23490;53.656;10.076;2023-08-30T05:54:17;6.53;;;3.92;;
37647;SDS011;23490;53.656;10.076;2023-08-30T05:56:42;7.05;;;4.00;;
37647;SDS011;23490;53.656;10.076;2023-08-30T05:59:08;7.60;;;4.68;;
37647;SDS011;23490;53.656;10.076;2023-08-30T06:01:33;6.40;;;3.53;;
37647;SDS011;23490;53.656;10.076;2023-08-30T06:03:58;6.90;;;4.07;;
37647;SDS011;23490;53.656;10.076;2023-08-30T06:06:25;6.20;;;3.75;;
37647;SDS011;23490;53.656;10.076;2023-08-30T06:08:52;6.82;;;4.05;;
37647;SDS011;23490;53.656;10.076;2023-08-30T06:11:17;6.45;;;3.63;;
37647;SDS011;23490;53.656;10.076;2023-08-30T06:13:43;7.38;;;3.42;;
37647;SDS011;23490;53.656;10.076;2023-08-30T06:16:11;6.65;;;3.88;;
37647;SDS011;23490;53.656;10.076;2023-08-30T06:18:36;9.38;;;4.45;;
37647;SDS011;23490;53.656;10.076;2023-08-30T06:21:02;6.55;;;4.00;;
37647;SDS011;23490;53.656;10.076;2023-08-30T06:23:29;6.07;;;3.78;;
37647;SDS011;23490;53.656;10.076;2023-08-30T06:25:57;7.53;;;3.60;;
37647;SDS011;23490;53.656;10.076;2023-08-30T06:28:23;6.18;;;3.67;;
37647;SDS011;23490;53.656;10.076;2023-08-30T06:30:48;8.70;;;3.78;;
37647;SDS011;23490;53.656;10.076;2023-08-30T06:33:14;8.85;;;3.70;;
37647;SDS011;23490;53.656;10.076;2023-08-30T06:35:39;6.50;;;3.50;;
37647;SDS011;23490;53.656;10.076;2023-08-30T06:38:05;6.30;;;4.18;;
37647;SDS011;23490;53.656;10.076;2023-08-30T06:40:31;6.25;;;3.67;;
37647;SDS011;23490;53.656;10.076;2023-08-30T06:42:56;5.72;;;3.08;;
37647;SDS011;23490;53.656;10.076;2023-08-30T06:45:22;5.90;;;3.53;;
37647;SDS011;23490;53.656;10.076;2023-08-30T06:47:48;5.43;;;3.33;;
37647;SDS011;23490;53.656;10.076;2023-08-30T06:50:14;4.40;;;2.63;;
37647;SDS011;23490;53.656;10.076;2023-08-30T06:52:40;6.32;;;3.30;;
37647;SDS011;23490;53.656;10.076;2023-08-30T06:55:05;4.60;;;2.58;;
37647;SDS011;23490;53.656;10.076;2023-08-30T06:57:31;10.95;;;3.00;;
37647;SDS011;23490;53.656;10.076;2023-08-30T06:59:56;9.55;;;3.40;;
37647;SDS011;23490;53.656;10.076;2023-08-30T07:02:22;7.10;;;3.00;;
37647;SDS011;23490;53.656;10.076;2023-08-30T07:04:47;5.10;;;2.88;;
37647;SDS011;23490;53.656;10.076;2023-08-30T07:07:12;5.60;;;2.80;;
37647;SDS011;23490;53.656;10.076;2023-08-30T07:09:39;4.13;;;2.55;;
37647;SDS011;23490;53.656;10.076;2023-08-30T07:12:05;5.68;;;2.72;;
37647;SDS011;23490;53.656;10.076;2023-08-30T07:14:30;4.35;;;2.65;;
37647;SDS011;23490;53.656;10.076;2023-08-30T07:16:56;6.88;;;3.00;;
37647;SDS011;23490;53.656;10.076;2023-08-30T07:19:21;6.43;;;3.47;;
37647;SDS011;23490;53.656;10.076;2023-08-30T07:21:47;3.85;;;2.50;;
37647;SDS011;23490;53.656;10.076;2023-08-30T07:24:13;5.75;;;2.88;;
37647;SDS011;23490;53.656;10.076;2023-08-30T07:26:38;5.35;;;2.72;;
37647;SDS011;23490;53.656;10.076;2023-08-30T07:29:03;4.53;;;2.38;;
37647;SDS011;23490;53.656;10.076;2023-08-30T07:31:30;4.25;;;2.80;;
37647;SDS011;23490;53.656;10.076;2023-08-30T07:33:56;5.13;;;2.60;;
37647;SDS011;23490;53.656;10.076;2023-08-30T07:36:23;6.20;;;3.17;;
37647;SDS011;23490;53.656;10.076;2023-08-30T07:38:48;6.28;;;3.00;;
37647;SDS011;23490;53.656;10.076;2023-08-30T07:41:13;4.45;;;2.63;;
37647;SDS011;23490;53.656;10.076;2023-08-30T07:43:39;5.53;;;3.75;;
37647;SDS011;23490;53.656;10.076;2023-08-30T07:46:04;3.70;;;2.60;;
37647;SDS011;23490;53.656;10.076;2023-08-30T07:48:29;5.40;;;2.55;;
37647;SDS011;23490;53.656;10.076;2023-08-30T07:50:55;5.38;;;3.22;;
37647;SDS011;23490;53.656;10.076;2023-08-30T07:53:20;4.97;;;3.03;;
37647;SDS011;23490;53.656;10.076;2023-08-30T07:55:49;3.90;;;2.28;;
37647;SDS011;23490;53.656;10.076;2023-08-30T07:58:17;4.40;;;2.38;;
37647;SDS011;23490;53.656;10.076;2023-08-30T08:00:43;6.25;;;2.65;;
37647;SDS011;23490;53.656;10.076;2023-08-30T08:03:08;5.57;;;3.88;;
37647;SDS011;23490;53.656;10.076;2023-08-30T08:05:35;5.63;;;3.00;;
37647;SDS011;23490;53.656;10.076;2023-08-30T08:08:01;4.68;;;2.50;;
37647;SDS011;23490;53.656;10.076;2023-08-30T08:10:27;4.05;;;2.55;;
37647;SDS011;23490;53.656;10.076;2023-08-30T08:12:56;5.07;;;2.83;;
37647;SDS011;23490;53.656;10.076;2023-08-30T08:15:21;4.93;;;2.80;;
37647;SDS011;23490;53.656;10.076;2023-08-30T08:17:47;5.53;;;2.75;;
37647;SDS011;23490;53.656;10.076;2023-08-30T08:20:12;6.28;;;3.20;;
37647;SDS011;23490;53.656;10.076;2023-08-30T08:22:38;8.52;;;2.90;;
37647;SDS011;23490;53.656;10.076;2023-08-30T08:25:04;6.03;;;3.10;;
37647;SDS011;23490;53.656;10.076;2023-08-30T08:27:30;5.90;;;2.60;;
37647;SDS011;23490;53.656;10.076;2023-08-30T08:29:55;4.20;;;2.70;;
37647;SDS011;23490;53.656;10.076;2023-08-30T08:32:23;5.47;;;3.10;;
37647;SDS011;23490;53.656;10.076;2023-08-30T08:34:48;6.50;;;3.97;;
37647;SDS011;23490;53.656;10.076;2023-08-30T08:37:14;7.25;;;4.03;;
37647;SDS011;23490;53.656;10.076;2023-08-30T08:39:39;7.18;;;3.72;;
37647;SDS011;23490;53.656;10.076;2023-08-30T08:42:05;6.85;;;3.30;;
37647;SDS011;23490;53.656;10.076;2023-08-30T08:44:31;5.72;;;2.97;;
37647;SDS011;23490;53.656;10.076;2023-08-30T08:46:57;5.45;;;2.53;;
37647;SDS011;23490;53.656;10.076;2023-08-30T08:49:24;4.63;;;2.55;;
37647;SDS011;23490;53.656;10.076;2023-08-30T08:51:53;5.30;;;2.60;;
37647;SDS011;23490;53.656;10.076;2023-08-30T08:54:19;6.35;;;3.28;;
37647;SDS011;23490;53.656;10.076;2023-08-30T08:56:44;7.10;;;3.00;;
37647;SDS011;23490;53.656;10.076;2023-08-30T08:59:11;5.85;;;3.17;;
37647;SDS011;23490;53.656;10.076;2023-08-30T09:01:36;5.50;;;3.10;;
37647;SDS011;23490;53.656;10.076;2023-08-30T09:04:08;5.22;;;2.90;;
37647;SDS011;23490;53.656;10.076;2023-08-30T09:09:01;6.03;;;3.60;;
37647;SDS011;23490;53.656;10.076;2023-08-30T09:11:28;6.47;;;3.13;;
37647;SDS011;23490;53.656;10.076;2023-08-30T09:13:54;6.25;;;3.22;;
37647;SDS011;23490;53.656;10.076;2023-08-30T09:16:19;4.50;;;2.72;;
37647;SDS011;23490;53.656;10.076;2023-08-30T09:18:44;4.90;;;2.83;;
37647;SDS011;23490;53.656;10.076;2023-08-30T09:21:10;6.75;;;4.05;;
37647;SDS011;23490;53.656;10.076;2023-08-30T09:23:36;5.07;;;3.55;;
37647;SDS011;23490;53.656;10.076;2023-08-30T09:26:02;6.05;;;3.03;;
37647;SDS011;23490;53.656;10.076;2023-08-30T09:28:29;5.35;;;2.70;;
37647;SDS011;23490;53.656;10.076;2023-08-30T09:30:56;3.80;;;2.05;;
37647;SDS011;23490;53.656;10.076;2023-08-30T09:33:23;5.55;;;2.45;;
37647;SDS011;23490;53.656;10.076;2023-08-30T09:35:54;5.63;;;3.00;;
37647;SDS011;23490;53.656;10.076;2023-08-30T09:38:19;4.70;;;2.15;;
37647;SDS011;23490;53.656;10.076;2023-08-30T09:40:45;5.38;;;2.47;;
37647;SDS011;23490;53.656;10.076;2023-08-30T09:43:11;3.97;;;1.88;;
37647;SDS011;23490;53.656;10.076;2023-08-30T09:45:37;4.25;;;1.88;;
37647;SDS011;23490;53.656;10.076;2023-08-30T09:48:03;3.72;;;2.22;;
37647;SDS011;23490;53.656;10.076;2023-08-30T09:50:30;6.63;;;2.38;;
37647;SDS011;23490;53.656;10.076;2023-08-30T09:53:03;4.95;;;1.80;;
37647;SDS011;23490;53.656;10.076;2023-08-30T09:55:33;3.97;;;2.03;;
37647;SDS011;23490;53.656;10.076;2023-08-30T09:58:00;4.32;;;1.75;;
37647;SDS011;23490;53.656;10.076;2023-08-30T10:00:27;4.47;;;1.98;;
37647;SDS011;23490;53.656;10.076;2023-08-30T10:02:53;4.65;;;2.17;;
37647;SDS011;23490;53.656;10.076;2023-08-30T10:05:19;4.53;;;2.20;;
37647;SDS011;23490;53.656;10.076;2023-08-30T10:07:45;5.93;;;2.70;;
37647;SDS011;23490;53.656;10.076;2023-08-30T10:10:11;3.80;;;1.92;;
37647;SDS011;23490;53.656;10.076;2023-08-30T10:12:37;4.30;;;1.88;;
37647;SDS011;23490;53.656;10.076;2023-08-30T10:15:04;3.60;;;1.85;;
37647;SDS011;23490;53.656;10.076;2023-08-30T10:17:31;4.80;;;1.80;;
37647;SDS011;23490;53.656;10.076;2023-08-30T10:19:58;4.90;;;1.70;;
37647;SDS011;23490;53.656;10.076;2023-08-30T10:22:24;3.85;;;1.88;;
37647;SDS011;23490;53.656;10.076;2023-08-30T10:24:59;2.58;;;1.50;;
37647;SDS011;23490;53.656;10.076;2023-08-30T10:27:29;3.20;;;1.90;;
37647;SDS011;23490;53.656;10.076;2023-08-30T10:29:56;2.67;;;1.50;;
37647;SDS011;23490;53.656;10.076;2023-08-30T10:32:26;4.65;;;1.75;;
37647;SDS011;23490;53.656;10.076;2023-08-30T10:34:51;4.07;;;1.85;;
37647;SDS011;23490;53.656;10.076;2023-08-30T10:37:22;5.28;;;2.10;;
37647;SDS011;23490;53.656;10.076;2023-08-30T10:39:51;3.17;;;1.98;;
37647;SDS011;23490;53.656;10.076;2023-08-30T10:42:21;4.65;;;1.88;;
37647;SDS011;23490;53.656;10.076;2023-08-30T10:44:51;4.57;;;2.08;;
37647;SDS011;23490;53.656;10.076;2023-08-30T10:47:27;3.33;;;2.03;;
37647;SDS011;23490;53.656;10.076;2023-08-30T10:49:57;2.47;;;1.30;;
37647;SDS011;23490;53.656;10.076;2023-08-30T10:52:24;4.10;;;1.90;;
37647;SDS011;23490;53.656;10.076;2023-08-30T10:54:53;2.50;;;1.42;;
37647;SDS011;23490;53.656;10.076;2023-08-30T10:57:19;5.45;;;1.88;;
37647;SDS011;23490;53.656;10.076;2023-08-30T11:00:24;2.75;;;1.60;;
37647;SDS011;23490;53.656;10.076;2023-08-30T11:02:43;4.85;;;1.70;;
37647;SDS011;23490;53.656;10.076;2023-08-30T11:05:11;3.28;;;1.40;;
37647;SDS011;23490;53.656;10.076;2023-08-30T11:07:36;3.35;;;1.27;;
37647;SDS011;23490;53.656;10.076;2023-08-30T11:10:05;2.33;;;1.58;;
37647;SDS011;23490;53.656;10.076;2023-08-30T11:12:32;2.92;;;1.33;;
37647;SDS011;23490;53.656;10.076;2023-08-30T11:14:58;2.63;;;1.63;;
37647;SDS011;23490;53.656;10.076;2023-08-30T11:17:23;4.00;;;1.80;;
37647;SDS011;23490;53.656;10.076;2023-08-30T11:19:50;2.88;;;1.58;;
37647;SDS011;23490;53.656;10.076;2023-08-30T11:22:16;3.97;;;1.63;;
37647;SDS011;23490;53.656;10.076;2023-08-30T11:24:42;2.28;;;1.38;;
37647;SDS011;23490;53.656;10.076;2023-08-30T11:27:09;2.92;;;1.80;;
37647;SDS011;23490;53.656;10.076;2023-08-30T11:29:35;2.60;;;1.50;;
37647;SDS011;23490;53.656;10.076;2023-08-30T11:32:00;2.40;;;1.50;;
37647;SDS011;23490;53.656;10.076;2023-08-30T11:34:25;1.45;;;1.05;;
37647;SDS011;23490;53.656;10.076;2023-08-30T11:36:51;2.10;;;1.35;;
37647;SDS011;23490;53.656;10.076;2023-08-30T11:39:17;2.88;;;1.70;;
37647;SDS011;23490;53.656;10.076;2023-08-30T11:41:43;2.92;;;1.33;;
37647;SDS011;23490;53.656;10.076;2023-08-30T11:44:08;1.80;;;1.30;;
37647;SDS011;23490;53.656;10.076;2023-08-30T11:46:34;2.38;;;1.60;;
37647;SDS011;23490;53.656;10.076;2023-08-30T11:49:00;1.92;;;1.17;;
37647;SDS011;23490;53.656;10.076;2023-08-30T11:51:25;3.03;;;1.45;;
37647;SDS011;23490;53.656;10.076;2023-08-30T11:53:51;3.20;;;1.60;;
37647;SDS011;23490;53.656;10.076;2023-08-30T11:56:17;2.97;;;1.67;;
37647;SDS011;23490;53.656;10.076;2023-08-30T11:58:44;3.17;;;1.83;;
37647;SDS011;23490;53.656;10.076;2023-08-30T12:01:10;2.35;;;1.40;;
37647;SDS011;23490;53.656;10.076;2023-08-30T12:03:36;2.42;;;1.48;;
37647;SDS011;23490;53.656;10.076;2023-08-30T12:06:01;2.65;;;1.52;;
37647;SDS011;23490;53.656;10.076;2023-08-30T12:08:27;4.63;;;1.52;;
37647;SDS011;23490;53.656;10.076;2023-08-30T12:10:55;3.55;;;1.80;;
37647;SDS011;23490;53.656;10.076;2023-08-30T12:13:25;2.15;;;1.27;;
37647;SDS011;23490;53.656;10.076;2023-08-30T12:15:51;2.80;;;1.75;;
37647;SDS011;23490;53.656;10.076;2023-08-30T12:18:20;3.30;;;1.63;;
37647;SDS011;23490;53.656;10.076;2023-08-30T12:20:56;3.15;;;1.58;;
37647;SDS011;23490;53.656;10.076;2023-08-30T12:23:28;5.00;;;2.60;;
37647;SDS011;23490;53.656;10.076;2023-08-30T12:28:30;2.10;;;1.33;;
37647;SDS011;23490;53.656;10.076;2023-08-30T12:30:57;3.05;;;1.70;;
37647;SDS011;23490;53.656;10.076;2023-08-30T12:33:23;3.08;;;1.55;;
37647;SDS011;23490;53.656;10.076;2023-08-30T12:35:56;2.92;;;1.25;;
37647;SDS011;23490;53.656;10.076;2023-08-30T12:38:22;2.72;;;1.25;;
37647;SDS011;23490;53.656;10.076;2023-08-30T12:40:49;3.47;;;2.10;;
37647;SDS011;23490;53.656;10.076;2023-08-30T12:43:16;2.85;;;1.58;;
37647;SDS011;23490;53.656;10.076;2023-08-30T12:45:43;3.20;;;1.38;;
37647;SDS011;23490;53.656;10.076;2023-08-30T12:48:09;2.60;;;1.70;;
37647;SDS011;23490;53.656;10.076;2023-08-30T12:50:41;2.78;;;1.40;;
37647;SDS011;23490;53.656;10.076;2023-08-30T12:53:08;2.10;;;1.40;;
37647;SDS011;23490;53.656;10.076;2023-08-30T12:55:34;3.55;;;1.52;;
37647;SDS011;23490;53.656;10.076;2023-08-30T12:57:59;2.53;;;1.58;;
37647;SDS011;23490;53.656;10.076;2023-08-30T13:00:25;3.30;;;1.90;;
37647;SDS011;23490;53.656;10.076;2023-08-30T13:02:51;5.13;;;1.92;;
37647;SDS011;23490;53.656;10.076;2023-08-30T13:05:16;3.72;;;2.03;;
37647;SDS011;23490;53.656;10.076;2023-08-30T13:07:42;3.50;;;1.90;;
37647;SDS011;23490;53.656;10.076;2023-08-30T13:10:08;2.92;;;1.90;;
37647;SDS011;23490;53.656;10.076;2023-08-30T13:12:34;3.88;;;1.80;;
37647;SDS011;23490;53.656;10.076;2023-08-30T13:15:00;3.42;;;1.92;;
37647;SDS011;23490;53.656;10.076;2023-08-30T13:17:26;4.93;;;1.92;;
37647;SDS011;23490;53.656;10.076;2023-08-30T13:19:52;2.38;;;1.75;;
37647;SDS011;23490;53.656;10.076;2023-08-30T13:22:17;3.67;;;1.67;;
37647;SDS011;23490;53.656;10.076;2023-08-30T13:24:45;3.83;;;1.80;;
37647;SDS011;23490;53.656;10.076;2023-08-30T13:27:12;2.97;;;1.42;;
37647;SDS011;23490;53.656;10.076;2023-08-30T13:29:38;3.13;;;1.60;;
37647;SDS011;23490;53.656;10.076;2023-08-30T13:32:03;2.47;;;1.73;;
37647;SDS011;23490;53.656;10.076;2023-08-30T13:34:29;1.98;;;1.60;;
37647;SDS011;23490;53.656;10.076;2023-08-30T13:36:54;2.53;;;1.55;;
37647;SDS011;23490;53.656;10.076;2023-08-30T13:39:19;3.00;;;1.65;;
37647;SDS011;23490;53.656;10.076;2023-08-30T13:41:45;2.03;;;1.40;;
37647;SDS011;23490;53.656;10.076;2023-08-30T13:44:12;2.55;;;1.35;;
37647;SDS011;23490;53.656;10.076;2023-08-30T13:46:38;3.53;;;1.58;;
37647;SDS011;23490;53.656;10.076;2023-08-30T13:49:03;3.50;;;2.08;;
37647;SDS011;23490;53.656;10.076;2023-08-30T13:51:29;2.78;;;1.60;;
37647;SDS011;23490;53.656;10.076;2023-08-30T13:53:55;4.20;;;1.83;;
37647;SDS011;23490;53.656;10.076;2023-08-30T13:56:20;2.78;;;1.52;;
37647;SDS011;23490;53.656;10.076;2023-08-30T13:58:46;1.67;;;1.27;;
37647;SDS011;23490;53.656;10.076;2023-08-30T14:01:11;3.92;;;2.00;;
37647;SDS011;23490;53.656;10.076;2023-08-30T14:03:37;2.90;;;1.52;;
37647;SDS011;23490;53.656;10.076;2023-08-30T14:06:02;2.67;;;2.13;;
37647;SDS011;23490;53.656;10.076;2023-08-30T14:08:28;3.42;;;1.65;;
37647;SDS011;23490;53.656;10.076;2023-08-30T14:10:54;3.22;;;1.67;;
37647;SDS011;23490;53.656;10.076;2023-08-30T14:13:20;2.45;;;1.38;;
37647;SDS011;23490;53.656;10.076;2023-08-30T14:15:45;2.53;;;1.45;;
37647;SDS011;23490;53.656;10.076;2023-08-30T14:18:10;3.28;;;1.70;;
37647;SDS011;23490;53.656;10.076;2023-08-30T14:20:36;2.80;;;1.70;;
37647;SDS011;23490;53.656;10.076;2023-08-30T14:23:01;2.40;;;1.65;;
37647;SDS011;23490;53.656;10.076;2023-08-30T14:25:27;3.83;;;1.75;;
37647;SDS011;23490;53.656;10.076;2023-08-30T14:27:52;2.45;;;1.40;;
37647;SDS011;23490;53.656;10.076;2023-08-30T14:30:18;3.72;;;2.25;;
37647;SDS011;23490;53.656;10.076;2023-08-30T14:32:43;3.15;;;1.40;;
37647;SDS011;23490;53.656;10.076;2023-08-30T14:35:09;3.13;;;1.55;;
37647;SDS011;23490;53.656;10.076;2023-08-30T14:37:36;2.08;;;1.58;;